KTBR/TBR METAR and TAF weather

Enter ICAO airport designator
Station Type Date Time Source
KTBR METAR 2021/05/11 01:15 UTC NOAA

KTBR 110115Z AUTO 22003KT 10SM CLR 23/19 A3000 RMK AO2 T02300185 TSNO


Station Type Date Time Source
KTBR Decoded METAR 2021/05/11 01:15 UTC NOAA

Statesboro, Statesboro-Bulloch County Airport, GA, United States (KTBR) 32-28-59N 081-44-14W
May 10, 2021 - 09:15 PM EDT / 2021.05.11 0115 UTC
Wind: from the SW (220 degrees) at 3 MPH (3 KT):0
Visibility: 10 mile(s):0
Sky conditions: clear
Temperature: 73.4 F (23.0 C)
Dew Point: 65.3 F (18.5 C)
Relative Humidity: 75%
Pressure (altimeter): 30 in. Hg (1015 hPa)
ob: KTBR 110115Z AUTO 22003KT 10SM CLR 23/19 A3000 RMK AO2 T02300185 TSNO
cycle: 1

Station Type Date Time Source
KTBR TAF UTC NOAA

Error!

Example: see airport list